sensor_id;sensor_type;location;lat;lon;timestamp;P1;durP1;ratioP1;P2;durP2;ratioP2
19358;SDS011;9815;52.334;20.890;2022-09-09T00:01:20;10.50;;;5.93;;
19358;SDS011;9815;52.334;20.890;2022-09-09T00:03:57;11.27;;;6.07;;
19358;SDS011;9815;52.334;20.890;2022-09-09T00:06:30;12.07;;;6.53;;
19358;SDS011;9815;52.334;20.890;2022-09-09T00:09:02;15.37;;;6.50;;
19358;SDS011;9815;52.334;20.890;2022-09-09T00:11:36;13.83;;;6.87;;
19358;SDS011;9815;52.334;20.890;2022-09-09T00:14:11;10.97;;;6.40;;
19358;SDS011;9815;52.334;20.890;2022-09-09T00:16:47;10.87;;;6.33;;
19358;SDS011;9815;52.334;20.890;2022-09-09T00:19:22;18.10;;;6.77;;
19358;SDS011;9815;52.334;20.890;2022-09-09T00:21:59;12.63;;;6.40;;
19358;SDS011;9815;52.334;20.890;2022-09-09T00:24:38;11.73;;;6.47;;
19358;SDS011;9815;52.334;20.890;2022-09-09T00:27:16;13.67;;;6.63;;
19358;SDS011;9815;52.334;20.890;2022-09-09T00:29:53;12.83;;;7.00;;
19358;SDS011;9815;52.334;20.890;2022-09-09T00:32:28;14.80;;;6.87;;
19358;SDS011;9815;52.334;20.890;2022-09-09T00:35:00;14.87;;;6.90;;
19358;SDS011;9815;52.334;20.890;2022-09-09T00:37:37;12.93;;;7.27;;
19358;SDS011;9815;52.334;20.890;2022-09-09T00:40:08;14.40;;;7.10;;
19358;SDS011;9815;52.334;20.890;2022-09-09T00:42:50;18.30;;;7.13;;
19358;SDS011;9815;52.334;20.890;2022-09-09T00:45:44;15.60;;;7.20;;
19358;SDS011;9815;52.334;20.890;2022-09-09T00:48:22;12.03;;;6.83;;
19358;SDS011;9815;52.334;20.890;2022-09-09T00:51:03;12.30;;;6.80;;
19358;SDS011;9815;52.334;20.890;2022-09-09T00:53:51;13.67;;;6.80;;
19358;SDS011;9815;52.334;20.890;2022-09-09T00:56:29;12.37;;;7.07;;
19358;SDS011;9815;52.334;20.890;2022-09-09T00:59:12;15.03;;;7.07;;
19358;SDS011;9815;52.334;20.890;2022-09-09T01:01:55;17.07;;;7.43;;
19358;SDS011;9815;52.334;20.890;2022-09-09T01:04:25;14.30;;;7.20;;
19358;SDS011;9815;52.334;20.890;2022-09-09T01:07:02;13.47;;;7.13;;
19358;SDS011;9815;52.334;20.890;2022-09-09T01:09:42;13.00;;;7.03;;
19358;SDS011;9815;52.334;20.890;2022-09-09T01:12:24;13.63;;;7.60;;
19358;SDS011;9815;52.334;20.890;2022-09-09T01:15:00;16.53;;;7.40;;
19358;SDS011;9815;52.334;20.890;2022-09-09T01:17:34;15.10;;;7.50;;
19358;SDS011;9815;52.334;20.890;2022-09-09T01:20:10;14.87;;;7.20;;
19358;SDS011;9815;52.334;20.890;2022-09-09T01:22:52;17.60;;;8.10;;
19358;SDS011;9815;52.334;20.890;2022-09-09T01:28:46;14.87;;;7.80;;
19358;SDS011;9815;52.334;20.890;2022-09-09T01:31:17;15.70;;;8.27;;
19358;SDS011;9815;52.334;20.890;2022-09-09T01:33:48;15.67;;;8.20;;
19358;SDS011;9815;52.334;20.890;2022-09-09T01:36:19;15.57;;;8.40;;
19358;SDS011;9815;52.334;20.890;2022-09-09T01:38:53;17.30;;;8.20;;
19358;SDS011;9815;52.334;20.890;2022-09-09T01:41:23;19.17;;;7.97;;
19358;SDS011;9815;52.334;20.890;2022-09-09T01:44:08;17.33;;;7.83;;
19358;SDS011;9815;52.334;20.890;2022-09-09T01:46:39;15.90;;;7.90;;
19358;SDS011;9815;52.334;20.890;2022-09-09T01:49:14;19.37;;;8.20;;
19358;SDS011;9815;52.334;20.890;2022-09-09T01:51:44;15.40;;;8.23;;
19358;SDS011;9815;52.334;20.890;2022-09-09T01:54:16;15.43;;;7.90;;
19358;SDS011;9815;52.334;20.890;2022-09-09T01:57:01;18.30;;;8.00;;
19358;SDS011;9815;52.334;20.890;2022-09-09T01:59:42;15.93;;;8.30;;
19358;SDS011;9815;52.334;20.890;2022-09-09T02:02:29;17.47;;;8.43;;
19358;SDS011;9815;52.334;20.890;2022-09-09T02:05:14;17.87;;;8.83;;
19358;SDS011;9815;52.334;20.890;2022-09-09T02:07:57;17.17;;;9.17;;
19358;SDS011;9815;52.334;20.890;2022-09-09T02:11:00;18.00;;;9.37;;
19358;SDS011;9815;52.334;20.890;2022-09-09T02:13:41;18.80;;;9.80;;
19358;SDS011;9815;52.334;20.890;2022-09-09T02:16:14;19.20;;;10.60;;
19358;SDS011;9815;52.334;20.890;2022-09-09T02:18:48;20.53;;;10.97;;
19358;SDS011;9815;52.334;20.890;2022-09-09T02:21:30;19.20;;;9.93;;
19358;SDS011;9815;52.334;20.890;2022-09-09T02:24:02;19.00;;;9.80;;
19358;SDS011;9815;52.334;20.890;2022-09-09T02:26:38;18.63;;;9.50;;
19358;SDS011;9815;52.334;20.890;2022-09-09T02:29:12;23.33;;;10.20;;
19358;SDS011;9815;52.334;20.890;2022-09-09T02:31:44;20.00;;;10.10;;
19358;SDS011;9815;52.334;20.890;2022-09-09T02:34:20;22.10;;;10.27;;
19358;SDS011;9815;52.334;20.890;2022-09-09T02:36:50;21.83;;;10.77;;
19358;SDS011;9815;52.334;20.890;2022-09-09T02:39:22;18.63;;;9.57;;
19358;SDS011;9815;52.334;20.890;2022-09-09T02:41:51;18.17;;;9.10;;
19358;SDS011;9815;52.334;20.890;2022-09-09T02:44:30;17.10;;;9.97;;
19358;SDS011;9815;52.334;20.890;2022-09-09T02:47:07;18.17;;;9.83;;
19358;SDS011;9815;52.334;20.890;2022-09-09T02:49:47;22.27;;;10.63;;
19358;SDS011;9815;52.334;20.890;2022-09-09T02:52:27;23.43;;;11.13;;
19358;SDS011;9815;52.334;20.890;2022-09-09T02:55:04;24.63;;;11.50;;
19358;SDS011;9815;52.334;20.890;2022-09-09T02:57:39;21.33;;;11.27;;
19358;SDS011;9815;52.334;20.890;2022-09-09T03:00:11;22.93;;;11.77;;
19358;SDS011;9815;52.334;20.890;2022-09-09T03:02:40;21.80;;;12.23;;
19358;SDS011;9815;52.334;20.890;2022-09-09T03:05:09;20.43;;;11.40;;
19358;SDS011;9815;52.334;20.890;2022-09-09T03:07:40;24.10;;;12.13;;
19358;SDS011;9815;52.334;20.890;2022-09-09T03:10:09;22.13;;;11.90;;
19358;SDS011;9815;52.334;20.890;2022-09-09T03:12:37;24.00;;;12.67;;
19358;SDS011;9815;52.334;20.890;2022-09-09T03:15:06;24.47;;;12.33;;
19358;SDS011;9815;52.334;20.890;2022-09-09T03:17:39;24.03;;;11.53;;
19358;SDS011;9815;52.334;20.890;2022-09-09T03:20:07;22.13;;;11.53;;
19358;SDS011;9815;52.334;20.890;2022-09-09T03:22:37;23.00;;;12.07;;
19358;SDS011;9815;52.334;20.890;2022-09-09T03:25:05;22.67;;;12.43;;
19358;SDS011;9815;52.334;20.890;2022-09-09T03:27:35;22.87;;;11.67;;
19358;SDS011;9815;52.334;20.890;2022-09-09T03:30:04;21.73;;;11.90;;
19358;SDS011;9815;52.334;20.890;2022-09-09T03:32:33;21.90;;;11.20;;
19358;SDS011;9815;52.334;20.890;2022-09-09T03:35:03;18.97;;;11.00;;
19358;SDS011;9815;52.334;20.890;2022-09-09T03:37:32;26.23;;;11.70;;
19358;SDS011;9815;52.334;20.890;2022-09-09T03:40:00;19.03;;;11.20;;
19358;SDS011;9815;52.334;20.890;2022-09-09T03:42:30;22.53;;;10.80;;
19358;SDS011;9815;52.334;20.890;2022-09-09T03:44:59;23.37;;;10.87;;
19358;SDS011;9815;52.334;20.890;2022-09-09T03:47:29;21.27;;;10.63;;
19358;SDS011;9815;52.334;20.890;2022-09-09T03:50:05;21.40;;;10.60;;
19358;SDS011;9815;52.334;20.890;2022-09-09T03:52:41;16.87;;;10.53;;
19358;SDS011;9815;52.334;20.890;2022-09-09T03:55:17;24.47;;;10.77;;
19358;SDS011;9815;52.334;20.890;2022-09-09T03:57:45;23.03;;;10.83;;
19358;SDS011;9815;52.334;20.890;2022-09-09T04:00:14;18.73;;;10.43;;
19358;SDS011;9815;52.334;20.890;2022-09-09T04:02:45;19.37;;;10.23;;
19358;SDS011;9815;52.334;20.890;2022-09-09T04:05:16;17.47;;;9.70;;
19358;SDS011;9815;52.334;20.890;2022-09-09T04:07:47;24.93;;;11.30;;
19358;SDS011;9815;52.334;20.890;2022-09-09T04:10:15;17.70;;;9.80;;
19358;SDS011;9815;52.334;20.890;2022-09-09T04:12:43;19.43;;;10.10;;
19358;SDS011;9815;52.334;20.890;2022-09-09T04:15:15;17.47;;;9.50;;
19358;SDS011;9815;52.334;20.890;2022-09-09T04:17:45;19.40;;;9.50;;
19358;SDS011;9815;52.334;20.890;2022-09-09T04:20:14;21.13;;;10.27;;
19358;SDS011;9815;52.334;20.890;2022-09-09T04:22:45;20.43;;;10.27;;
19358;SDS011;9815;52.334;20.890;2022-09-09T04:25:14;18.03;;;10.50;;
19358;SDS011;9815;52.334;20.890;2022-09-09T04:27:43;19.40;;;10.17;;
19358;SDS011;9815;52.334;20.890;2022-09-09T04:30:12;16.63;;;9.60;;
19358;SDS011;9815;52.334;20.890;2022-09-09T04:32:41;18.97;;;9.80;;
19358;SDS011;9815;52.334;20.890;2022-09-09T04:35:09;17.53;;;9.90;;
19358;SDS011;9815;52.334;20.890;2022-09-09T04:37:38;18.07;;;9.40;;
19358;SDS011;9815;52.334;20.890;2022-09-09T04:40:08;17.33;;;9.60;;
19358;SDS011;9815;52.334;20.890;2022-09-09T04:42:37;19.40;;;10.23;;
19358;SDS011;9815;52.334;20.890;2022-09-09T04:45:13;14.27;;;9.10;;
19358;SDS011;9815;52.334;20.890;2022-09-09T04:47:42;15.60;;;9.53;;
19358;SDS011;9815;52.334;20.890;2022-09-09T04:50:10;15.43;;;9.10;;
19358;SDS011;9815;52.334;20.890;2022-09-09T04:52:39;16.27;;;9.30;;
19358;SDS011;9815;52.334;20.890;2022-09-09T04:55:09;17.50;;;9.57;;
19358;SDS011;9815;52.334;20.890;2022-09-09T04:57:42;17.60;;;9.70;;
19358;SDS011;9815;52.334;20.890;2022-09-09T05:00:12;15.43;;;9.37;;
19358;SDS011;9815;52.334;20.890;2022-09-09T05:02:41;16.63;;;9.53;;
19358;SDS011;9815;52.334;20.890;2022-09-09T05:05:09;16.47;;;9.13;;
19358;SDS011;9815;52.334;20.890;2022-09-09T05:07:39;15.50;;;8.90;;
19358;SDS011;9815;52.334;20.890;2022-09-09T05:10:09;19.00;;;9.80;;
19358;SDS011;9815;52.334;20.890;2022-09-09T05:12:38;17.23;;;9.40;;
19358;SDS011;9815;52.334;20.890;2022-09-09T05:15:06;15.73;;;8.97;;
19358;SDS011;9815;52.334;20.890;2022-09-09T05:17:36;16.73;;;9.60;;
19358;SDS011;9815;52.334;20.890;2022-09-09T05:20:05;14.17;;;9.33;;
19358;SDS011;9815;52.334;20.890;2022-09-09T05:22:37;18.30;;;8.87;;
19358;SDS011;9815;52.334;20.890;2022-09-09T05:25:05;16.23;;;9.47;;
19358;SDS011;9815;52.334;20.890;2022-09-09T05:27:36;14.60;;;8.53;;
19358;SDS011;9815;52.334;20.890;2022-09-09T05:30:06;14.23;;;9.20;;
19358;SDS011;9815;52.334;20.890;2022-09-09T05:32:35;15.40;;;9.13;;
19358;SDS011;9815;52.334;20.890;2022-09-09T05:35:03;15.80;;;9.03;;
19358;SDS011;9815;52.334;20.890;2022-09-09T05:37:32;14.47;;;9.17;;
19358;SDS011;9815;52.334;20.890;2022-09-09T05:40:01;13.60;;;8.87;;
19358;SDS011;9815;52.334;20.890;2022-09-09T05:42:30;14.43;;;9.27;;
19358;SDS011;9815;52.334;20.890;2022-09-09T05:45:01;16.50;;;9.67;;
19358;SDS011;9815;52.334;20.890;2022-09-09T05:47:29;16.60;;;8.77;;
19358;SDS011;9815;52.334;20.890;2022-09-09T05:49:58;14.33;;;8.93;;
19358;SDS011;9815;52.334;20.890;2022-09-09T05:52:27;16.00;;;9.70;;
19358;SDS011;9815;52.334;20.890;2022-09-09T05:54:57;18.27;;;10.17;;
19358;SDS011;9815;52.334;20.890;2022-09-09T05:57:26;17.87;;;10.80;;
19358;SDS011;9815;52.334;20.890;2022-09-09T05:59:54;16.47;;;10.27;;
19358;SDS011;9815;52.334;20.890;2022-09-09T06:02:24;19.40;;;11.33;;
19358;SDS011;9815;52.334;20.890;2022-09-09T06:04:52;17.80;;;10.10;;
19358;SDS011;9815;52.334;20.890;2022-09-09T06:07:26;16.43;;;10.20;;
19358;SDS011;9815;52.334;20.890;2022-09-09T06:09:55;15.73;;;9.47;;
19358;SDS011;9815;52.334;20.890;2022-09-09T06:12:25;15.87;;;9.37;;
19358;SDS011;9815;52.334;20.890;2022-09-09T06:14:54;16.93;;;10.50;;
19358;SDS011;9815;52.334;20.890;2022-09-09T06:17:24;21.23;;;11.10;;
19358;SDS011;9815;52.334;20.890;2022-09-09T06:19:52;19.33;;;10.80;;
19358;SDS011;9815;52.334;20.890;2022-09-09T06:22:21;16.90;;;10.93;;
19358;SDS011;9815;52.334;20.890;2022-09-09T06:24:50;14.37;;;9.07;;
19358;SDS011;9815;52.334;20.890;2022-09-09T06:27:19;12.83;;;9.10;;
19358;SDS011;9815;52.334;20.890;2022-09-09T06:29:48;14.27;;;9.27;;
19358;SDS011;9815;52.334;20.890;2022-09-09T06:32:16;13.37;;;8.73;;
19358;SDS011;9815;52.334;20.890;2022-09-09T06:34:46;14.93;;;8.97;;
19358;SDS011;9815;52.334;20.890;2022-09-09T06:37:15;17.30;;;9.20;;
19358;SDS011;9815;52.334;20.890;2022-09-09T06:39:47;16.33;;;9.20;;
19358;SDS011;9815;52.334;20.890;2022-09-09T06:42:16;15.73;;;9.43;;
19358;SDS011;9815;52.334;20.890;2022-09-09T06:44:58;15.63;;;9.63;;
19358;SDS011;9815;52.334;20.890;2022-09-09T06:47:34;15.03;;;9.07;;
19358;SDS011;9815;52.334;20.890;2022-09-09T06:50:04;14.87;;;9.93;;
19358;SDS011;9815;52.334;20.890;2022-09-09T06:52:34;15.83;;;10.10;;
19358;SDS011;9815;52.334;20.890;2022-09-09T06:55:04;17.87;;;10.57;;
19358;SDS011;9815;52.334;20.890;2022-09-09T06:57:34;21.87;;;11.50;;
19358;SDS011;9815;52.334;20.890;2022-09-09T07:00:17;16.80;;;11.47;;
19358;SDS011;9815;52.334;20.890;2022-09-09T07:02:45;15.20;;;10.30;;
19358;SDS011;9815;52.334;20.890;2022-09-09T07:05:15;15.77;;;9.80;;
19358;SDS011;9815;52.334;20.890;2022-09-09T07:07:45;13.73;;;9.40;;
19358;SDS011;9815;52.334;20.890;2022-09-09T07:10:17;15.87;;;8.53;;
19358;SDS011;9815;52.334;20.890;2022-09-09T07:12:45;16.23;;;8.80;;
19358;SDS011;9815;52.334;20.890;2022-09-09T07:15:21;13.00;;;9.23;;
19358;SDS011;9815;52.334;20.890;2022-09-09T07:17:49;13.70;;;8.97;;
19358;SDS011;9815;52.334;20.890;2022-09-09T07:20:21;13.00;;;8.03;;
19358;SDS011;9815;52.334;20.890;2022-09-09T07:22:50;14.47;;;8.73;;
19358;SDS011;9815;52.334;20.890;2022-09-09T07:25:21;12.90;;;8.73;;
19358;SDS011;9815;52.334;20.890;2022-09-09T07:27:50;14.70;;;9.00;;
19358;SDS011;9815;52.334;20.890;2022-09-09T07:30:18;17.50;;;9.70;;
19358;SDS011;9815;52.334;20.890;2022-09-09T07:32:53;18.33;;;8.77;;
19358;SDS011;9815;52.334;20.890;2022-09-09T07:35:25;18.53;;;10.60;;
19358;SDS011;9815;52.334;20.890;2022-09-09T07:37:54;16.70;;;9.80;;
19358;SDS011;9815;52.334;20.890;2022-09-09T07:40:22;16.07;;;10.03;;
19358;SDS011;9815;52.334;20.890;2022-09-09T07:42:52;17.23;;;10.37;;
19358;SDS011;9815;52.334;20.890;2022-09-09T07:45:20;17.33;;;11.57;;
19358;SDS011;9815;52.334;20.890;2022-09-09T07:47:49;17.77;;;12.17;;
19358;SDS011;9815;52.334;20.890;2022-09-09T07:50:17;22.07;;;13.13;;
19358;SDS011;9815;52.334;20.890;2022-09-09T07:52:47;19.40;;;12.87;;
19358;SDS011;9815;52.334;20.890;2022-09-09T07:55:15;23.43;;;14.30;;
19358;SDS011;9815;52.334;20.890;2022-09-09T07:57:44;20.57;;;12.33;;
19358;SDS011;9815;52.334;20.890;2022-09-09T08:00:14;18.77;;;11.73;;
19358;SDS011;9815;52.334;20.890;2022-09-09T08:02:48;17.83;;;11.97;;
19358;SDS011;9815;52.334;20.890;2022-09-09T08:05:16;17.33;;;11.57;;
19358;SDS011;9815;52.334;20.890;2022-09-09T08:07:45;19.67;;;12.40;;
19358;SDS011;9815;52.334;20.890;2022-09-09T08:10:15;19.30;;;12.07;;
19358;SDS011;9815;52.334;20.890;2022-09-09T08:12:46;22.80;;;12.57;;
19358;SDS011;9815;52.334;20.890;2022-09-09T08:15:35;22.00;;;12.40;;
19358;SDS011;9815;52.334;20.890;2022-09-09T08:18:04;21.80;;;11.80;;
19358;SDS011;9815;52.334;20.890;2022-09-09T08:20:33;24.00;;;12.03;;
19358;SDS011;9815;52.334;20.890;2022-09-09T08:23:03;18.87;;;11.77;;
19358;SDS011;9815;52.334;20.890;2022-09-09T08:25:34;18.13;;;11.37;;
19358;SDS011;9815;52.334;20.890;2022-09-09T08:28:03;19.53;;;11.93;;
19358;SDS011;9815;52.334;20.890;2022-09-09T08:30:31;21.67;;;11.47;;
19358;SDS011;9815;52.334;20.890;2022-09-09T08:33:00;20.50;;;12.10;;
19358;SDS011;9815;52.334;20.890;2022-09-09T08:35:29;24.73;;;12.47;;
19358;SDS011;9815;52.334;20.890;2022-09-09T08:37:59;21.33;;;13.03;;
19358;SDS011;9815;52.334;20.890;2022-09-09T08:40:32;20.20;;;12.63;;
19358;SDS011;9815;52.334;20.890;2022-09-09T08:43:10;23.60;;;13.37;;
19358;SDS011;9815;52.334;20.890;2022-09-09T08:45:42;22.23;;;12.53;;
19358;SDS011;9815;52.334;20.890;2022-09-09T08:48:22;19.23;;;13.00;;
19358;SDS011;9815;52.334;20.890;2022-09-09T08:51:08;25.40;;;13.47;;
19358;SDS011;9815;52.334;20.890;2022-09-09T08:53:39;23.00;;;12.80;;
19358;SDS011;9815;52.334;20.890;2022-09-09T08:56:16;23.47;;;13.87;;
19358;SDS011;9815;52.334;20.890;2022-09-09T08:58:49;20.97;;;12.70;;
19358;SDS011;9815;52.334;20.890;2022-09-09T09:01:38;23.03;;;13.50;;
19358;SDS011;9815;52.334;20.890;2022-09-09T09:04:33;21.07;;;13.17;;
19358;SDS011;9815;52.334;20.890;2022-09-09T09:07:16;24.60;;;13.63;;
19358;SDS011;9815;52.334;20.890;2022-09-09T09:10:00;24.70;;;13.27;;
19358;SDS011;9815;52.334;20.890;2022-09-09T09:12:57;25.13;;;13.90;;
19358;SDS011;9815;52.334;20.890;2022-09-09T09:15:27;22.80;;;14.03;;
19358;SDS011;9815;52.334;20.890;2022-09-09T09:17:58;29.17;;;14.70;;
19358;SDS011;9815;52.334;20.890;2022-09-09T09:20:27;29.47;;;15.47;;
19358;SDS011;9815;52.334;20.890;2022-09-09T09:23:03;22.20;;;13.37;;
19358;SDS011;9815;52.334;20.890;2022-09-09T09:25:34;24.73;;;14.83;;
19358;SDS011;9815;52.334;20.890;2022-09-09T09:28:10;27.23;;;15.07;;
19358;SDS011;9815;52.334;20.890;2022-09-09T09:30:48;30.73;;;14.97;;
19358;SDS011;9815;52.334;20.890;2022-09-09T09:33:21;26.63;;;14.47;;
19358;SDS011;9815;52.334;20.890;2022-09-09T09:35:55;29.10;;;15.10;;
19358;SDS011;9815;52.334;20.890;2022-09-09T09:38:27;29.00;;;14.90;;
19358;SDS011;9815;52.334;20.890;2022-09-09T09:41:16;30.27;;;15.90;;
19358;SDS011;9815;52.334;20.890;2022-09-09T09:43:52;27.53;;;15.40;;
19358;SDS011;9815;52.334;20.890;2022-09-09T09:46:23;30.33;;;15.97;;
19358;SDS011;9815;52.334;20.890;2022-09-09T09:49:03;27.90;;;15.87;;
19358;SDS011;9815;52.334;20.890;2022-09-09T09:51:33;26.63;;;15.80;;
19358;SDS011;9815;52.334;20.890;2022-09-09T09:54:06;35.30;;;18.13;;
19358;SDS011;9815;52.334;20.890;2022-09-09T09:56:46;34.60;;;17.73;;
19358;SDS011;9815;52.334;20.890;2022-09-09T09:59:21;34.93;;;19.20;;
19358;SDS011;9815;52.334;20.890;2022-09-09T10:02:11;37.03;;;19.50;;
19358;SDS011;9815;52.334;20.890;2022-09-09T10:05:00;33.13;;;18.67;;
19358;SDS011;9815;52.334;20.890;2022-09-09T10:07:29;31.30;;;19.37;;
19358;SDS011;9815;52.334;20.890;2022-09-09T10:09:59;35.00;;;18.60;;
19358;SDS011;9815;52.334;20.890;2022-09-09T10:12:35;35.23;;;19.23;;
19358;SDS011;9815;52.334;20.890;2022-09-09T10:15:22;31.93;;;18.00;;
19358;SDS011;9815;52.334;20.890;2022-09-09T10:18:02;37.67;;;19.67;;
19358;SDS011;9815;52.334;20.890;2022-09-09T10:20:43;33.50;;;18.67;;
19358;SDS011;9815;52.334;20.890;2022-09-09T10:23:21;33.60;;;17.93;;
19358;SDS011;9815;52.334;20.890;2022-09-09T10:26:17;35.07;;;17.87;;
19358;SDS011;9815;52.334;20.890;2022-09-09T10:29:00;41.27;;;19.37;;
19358;SDS011;9815;52.334;20.890;2022-09-09T10:31:46;31.77;;;19.30;;
19358;SDS011;9815;52.334;20.890;2022-09-09T10:34:33;39.87;;;19.50;;
19358;SDS011;9815;52.334;20.890;2022-09-09T10:37:15;37.20;;;19.17;;
19358;SDS011;9815;52.334;20.890;2022-09-09T10:39:50;36.00;;;18.97;;
19358;SDS011;9815;52.334;20.890;2022-09-09T10:42:28;33.53;;;18.80;;
19358;SDS011;9815;52.334;20.890;2022-09-09T10:45:02;36.53;;;18.93;;
19358;SDS011;9815;52.334;20.890;2022-09-09T10:47:49;35.27;;;18.93;;
19358;SDS011;9815;52.334;20.890;2022-09-09T10:53:39;35.13;;;18.30;;
19358;SDS011;9815;52.334;20.890;2022-09-09T10:56:18;35.53;;;18.90;;
19358;SDS011;9815;52.334;20.890;2022-09-09T10:58:50;42.97;;;20.27;;
19358;SDS011;9815;52.334;20.890;2022-09-09T11:01:23;38.00;;;19.97;;
19358;SDS011;9815;52.334;20.890;2022-09-09T11:03:57;37.73;;;20.33;;
19358;SDS011;9815;52.334;20.890;2022-09-09T11:06:32;39.90;;;20.77;;
19358;SDS011;9815;52.334;20.890;2022-09-09T11:09:08;42.00;;;20.83;;
19358;SDS011;9815;52.334;20.890;2022-09-09T11:11:42;40.30;;;21.37;;
19358;SDS011;9815;52.334;20.890;2022-09-09T11:14:18;42.47;;;20.93;;
19358;SDS011;9815;52.334;20.890;2022-09-09T11:16:51;42.53;;;20.93;;
19358;SDS011;9815;52.334;20.890;2022-09-09T11:19:26;41.20;;;21.77;;
19358;SDS011;9815;52.334;20.890;2022-09-09T11:22:00;43.23;;;21.53;;
19358;SDS011;9815;52.334;20.890;2022-09-09T11:24:33;38.30;;;20.30;;
19358;SDS011;9815;52.334;20.890;2022-09-09T11:27:08;50.90;;;22.53;;
19358;SDS011;9815;52.334;20.890;2022-09-09T11:39:01;42.80;;;22.03;;
19358;SDS011;9815;52.334;20.890;2022-09-09T11:41:40;45.90;;;23.07;;
19358;SDS011;9815;52.334;20.890;2022-09-09T11:44:09;46.77;;;22.67;;
19358;SDS011;9815;52.334;20.890;2022-09-09T11:46:40;52.43;;;22.33;;
19358;SDS011;9815;52.334;20.890;2022-09-09T11:49:21;47.23;;;23.67;;
19358;SDS011;9815;52.334;20.890;2022-09-09T11:51:56;44.80;;;23.03;;
19358;SDS011;9815;52.334;20.890;2022-09-09T11:54:27;45.03;;;23.13;;
19358;SDS011;9815;52.334;20.890;2022-09-09T11:56:57;49.63;;;24.47;;
19358;SDS011;9815;52.334;20.890;2022-09-09T11:59:26;47.90;;;24.43;;
19358;SDS011;9815;52.334;20.890;2022-09-09T12:01:56;49.20;;;23.83;;
19358;SDS011;9815;52.334;20.890;2022-09-09T12:04:27;48.50;;;24.57;;
19358;SDS011;9815;52.334;20.890;2022-09-09T12:07:05;50.47;;;24.63;;
19358;SDS011;9815;52.334;20.890;2022-09-09T12:09:57;50.50;;;24.03;;
19358;SDS011;9815;52.334;20.890;2022-09-09T12:12:32;54.30;;;24.87;;
19358;SDS011;9815;52.334;20.890;2022-09-09T12:15:20;54.10;;;25.33;;
19358;SDS011;9815;52.334;20.890;2022-09-09T12:17:55;58.47;;;26.57;;
19358;SDS011;9815;52.334;20.890;2022-09-09T12:20:31;53.03;;;25.43;;
19358;SDS011;9815;52.334;20.890;2022-09-09T12:23:15;53.87;;;24.67;;
19358;SDS011;9815;52.334;20.890;2022-09-09T12:25:54;53.87;;;25.93;;
19358;SDS011;9815;52.334;20.890;2022-09-09T12:28:43;57.43;;;26.63;;
19358;SDS011;9815;52.334;20.890;2022-09-09T12:31:20;54.97;;;26.87;;
19358;SDS011;9815;52.334;20.890;2022-09-09T12:33:54;52.70;;;25.93;;
19358;SDS011;9815;52.334;20.890;2022-09-09T12:36:23;64.67;;;26.57;;
19358;SDS011;9815;52.334;20.890;2022-09-09T12:38:59;63.30;;;27.57;;
19358;SDS011;9815;52.334;20.890;2022-09-09T12:41:50;57.60;;;26.03;;
19358;SDS011;9815;52.334;20.890;2022-09-09T12:44:23;58.10;;;26.23;;
19358;SDS011;9815;52.334;20.890;2022-09-09T12:46:54;61.33;;;26.93;;
19358;SDS011;9815;52.334;20.890;2022-09-09T12:49:29;62.30;;;27.77;;
19358;SDS011;9815;52.334;20.890;2022-09-09T12:52:01;62.10;;;26.80;;
19358;SDS011;9815;52.334;20.890;2022-09-09T12:54:34;61.73;;;27.50;;
19358;SDS011;9815;52.334;20.890;2022-09-09T12:57:03;66.57;;;27.03;;
19358;SDS011;9815;52.334;20.890;2022-09-09T12:59:36;66.00;;;27.57;;
19358;SDS011;9815;52.334;20.890;2022-09-09T13:02:16;61.03;;;27.93;;
19358;SDS011;9815;52.334;20.890;2022-09-09T13:04:47;67.17;;;29.77;;
19358;SDS011;9815;52.334;20.890;2022-09-09T13:07:17;61.23;;;28.70;;
19358;SDS011;9815;52.334;20.890;2022-09-09T13:09:47;67.77;;;29.23;;
19358;SDS011;9815;52.334;20.890;2022-09-09T13:12:17;70.50;;;28.50;;
19358;SDS011;9815;52.334;20.890;2022-09-09T13:14:47;71.30;;;28.80;;
19358;SDS011;9815;52.334;20.890;2022-09-09T13:17:19;65.40;;;28.60;;
19358;SDS011;9815;52.334;20.890;2022-09-09T13:19:49;66.10;;;29.00;;
19358;SDS011;9815;52.334;20.890;2022-09-09T13:22:30;64.23;;;29.30;;
19358;SDS011;9815;52.334;20.890;2022-09-09T13:25:04;64.67;;;27.93;;
19358;SDS011;9815;52.334;20.890;2022-09-09T13:27:51;64.43;;;28.63;;
19358;SDS011;9815;52.334;20.890;2022-09-09T13:30:22;68.80;;;28.93;;
19358;SDS011;9815;52.334;20.890;2022-09-09T13:33:06;63.80;;;28.73;;
19358;SDS011;9815;52.334;20.890;2022-09-09T13:35:50;70.70;;;28.70;;
19358;SDS011;9815;52.334;20.890;2022-09-09T13:38:21;61.23;;;27.03;;
19358;SDS011;9815;52.334;20.890;2022-09-09T13:40:57;68.07;;;29.87;;
19358;SDS011;9815;52.334;20.890;2022-09-09T13:43:31;60.77;;;28.13;;
19358;SDS011;9815;52.334;20.890;2022-09-09T13:46:03;64.50;;;28.00;;
19358;SDS011;9815;52.334;20.890;2022-09-09T13:48:33;61.43;;;27.30;;
19358;SDS011;9815;52.334;20.890;2022-09-09T13:51:02;65.83;;;28.50;;
19358;SDS011;9815;52.334;20.890;2022-09-09T13:53:32;62.33;;;28.07;;
19358;SDS011;9815;52.334;20.890;2022-09-09T13:56:01;67.00;;;29.00;;
19358;SDS011;9815;52.334;20.890;2022-09-09T13:58:30;67.80;;;29.23;;
19358;SDS011;9815;52.334;20.890;2022-09-09T14:00:58;61.83;;;26.43;;
19358;SDS011;9815;52.334;20.890;2022-09-09T14:03:26;67.43;;;27.77;;
19358;SDS011;9815;52.334;20.890;2022-09-09T14:08:51;74.70;;;28.50;;
19358;SDS011;9815;52.334;20.890;2022-09-09T14:11:22;66.27;;;28.13;;
19358;SDS011;9815;52.334;20.890;2022-09-09T14:13:50;66.70;;;27.13;;
19358;SDS011;9815;52.334;20.890;2022-09-09T14:16:19;67.67;;;27.57;;
19358;SDS011;9815;52.334;20.890;2022-09-09T14:18:48;62.33;;;26.13;;
19358;SDS011;9815;52.334;20.890;2022-09-09T14:21:16;61.90;;;26.57;;
19358;SDS011;9815;52.334;20.890;2022-09-09T14:23:45;65.70;;;26.67;;
19358;SDS011;9815;52.334;20.890;2022-09-09T14:26:13;64.70;;;26.53;;
19358;SDS011;9815;52.334;20.890;2022-09-09T14:28:42;68.43;;;27.20;;
19358;SDS011;9815;52.334;20.890;2022-09-09T14:31:20;69.33;;;25.90;;
19358;SDS011;9815;52.334;20.890;2022-09-09T14:33:49;68.13;;;25.30;;
19358;SDS011;9815;52.334;20.890;2022-09-09T14:36:18;66.40;;;26.40;;
19358;SDS011;9815;52.334;20.890;2022-09-09T14:38:47;62.50;;;25.43;;
19358;SDS011;9815;52.334;20.890;2022-09-09T14:41:16;67.03;;;26.60;;
19358;SDS011;9815;52.334;20.890;2022-09-09T14:43:47;72.03;;;27.30;;
19358;SDS011;9815;52.334;20.890;2022-09-09T14:46:16;66.87;;;27.20;;
19358;SDS011;9815;52.334;20.890;2022-09-09T14:48:46;67.97;;;26.67;;
19358;SDS011;9815;52.334;20.890;2022-09-09T14:51:16;72.43;;;27.23;;
19358;SDS011;9815;52.334;20.890;2022-09-09T14:53:50;73.90;;;26.23;;
19358;SDS011;9815;52.334;20.890;2022-09-09T14:56:20;60.10;;;26.30;;
19358;SDS011;9815;52.334;20.890;2022-09-09T14:58:53;68.10;;;26.07;;
19358;SDS011;9815;52.334;20.890;2022-09-09T15:01:23;58.80;;;24.63;;
19358;SDS011;9815;52.334;20.890;2022-09-09T15:03:54;60.07;;;23.60;;
19358;SDS011;9815;52.334;20.890;2022-09-09T15:06:24;59.97;;;23.07;;
19358;SDS011;9815;52.334;20.890;2022-09-09T15:08:55;57.10;;;23.47;;
19358;SDS011;9815;52.334;20.890;2022-09-09T15:11:25;65.73;;;24.83;;
19358;SDS011;9815;52.334;20.890;2022-09-09T15:13:58;59.97;;;23.33;;
19358;SDS011;9815;52.334;20.890;2022-09-09T15:16:27;59.07;;;24.23;;
19358;SDS011;9815;52.334;20.890;2022-09-09T15:18:56;63.97;;;26.17;;
19358;SDS011;9815;52.334;20.890;2022-09-09T15:21:27;65.17;;;25.40;;